Time;durP1;ratioP1;P1;durP2;ratioP2;P2;SDS_P1;SDS_P2;PMS_P1;PMS_P2;Temp;Humidity;BMP_temperature;BMP_pressure;BME280_temperature;BME280_humidity;BME280_pressure;Samples;Min_cycle;Max_cycle;Signal;HPM_P1;HPM_P2
2021/09/23 00:04:48;;;;;;;49.03;28.35;;;;;;;9.88;97.80;99648.06;4235252;81;21039;-82
2021/09/23 00:10:50;;;;;;;48.92;27.42;;;;;;;9.86;98.05;99637.48;4262866;82;21040;-82
2021/09/23 00:16:52;;;;;;;48.00;28.47;;;;;;;9.85;98.13;99638.61;4251100;82;21027;-82
2021/09/23 00:22:54;;;;;;;49.83;27.15;;;;;;;9.87;98.26;99630.85;4291383;81;21038;-83
2021/09/23 00:28:55;;;;;;;45.28;26.15;;;;;;;9.88;98.12;99632.43;4303956;81;20991;-82
2021/09/23 00:34:57;;;;;;;44.98;26.90;;;;;;;9.89;98.24;99619.00;4304646;81;21535;-82
2021/09/23 00:40:58;;;;;;;46.33;25.77;;;;;;;9.89;98.17;99618.19;4308988;80;21046;-81
2021/09/23 00:47:00;;;;;;;47.05;26.75;;;;;;;9.86;98.16;99612.87;4305839;81;20960;-82
2021/09/23 00:53:02;;;;;;;48.85;27.17;;;;;;;9.84;98.19;99612.42;4302090;81;21003;-81
2021/09/23 00:59:05;;;;;;;50.58;28.40;;;;;;;9.80;98.17;99620.33;4287430;80;21024;-82
2021/09/23 01:05:07;;;;;;;51.83;28.38;;;;;;;9.78;98.24;99616.58;4292899;82;21074;-83
2021/09/23 01:11:09;;;;;;;52.58;28.98;;;;;;;9.78;98.26;99624.78;4300186;82;20968;-82
2021/09/23 01:17:11;;;;;;;49.60;28.57;;;;;;;9.77;98.18;99614.20;4185374;83;21055;-82
2021/09/23 01:23:15;;;;;;;47.23;28.98;;;;;;;9.73;98.25;99596.34;4178250;83;21098;-82
2021/09/23 01:29:20;;;;;;;49.08;28.85;;;;;;;9.71;98.40;99595.89;4190497;84;21068;-81
2021/09/23 01:35:24;;;;;;;57.25;31.45;;;;;;;9.69;98.40;99594.67;4199826;83;21411;-82
2021/09/23 01:41:25;;;;;;;56.53;31.60;;;;;;;9.73;98.63;99585.97;4195300;83;21538;-82
2021/09/23 01:47:28;;;;;;;57.17;31.05;;;;;;;9.69;98.51;99581.80;4216693;83;21055;-82
2021/09/23 01:53:31;;;;;;;52.65;31.95;;;;;;;9.71;98.79;99573.25;4204564;83;21519;-82
2021/09/23 01:59:32;;;;;;;50.73;27.75;;;;;;;9.69;98.58;99579.07;4203277;81;21043;-82
2021/09/23 02:05:37;;;;;;;50.92;28.32;;;;;;;9.71;98.77;99581.45;4207079;83;22339;-82
2021/09/23 02:11:48;;;;;;;50.55;29.80;;;;;;;9.69;98.73;99552.30;4174229;83;21062;-81
2021/09/23 02:17:50;;;;;;;49.33;27.02;;;;;;;9.68;98.64;99541.93;4202814;81;33418;-81
2021/09/23 02:23:54;;;;;;;50.48;28.15;;;;;;;9.63;98.53;99545.52;4185284;83;21100;-81
2021/09/23 02:29:55;;;;;;;50.85;28.95;;;;;;;9.59;98.70;99539.97;4193743;83;21018;-82
2021/09/23 02:35:56;;;;;;;55.75;29.98;;;;;;;9.53;98.48;99531.82;4191554;83;21538;-81
2021/09/23 02:41:58;;;;;;;45.05;25.77;;;;;;;9.47;98.53;99523.09;4192460;83;21036;-81
2021/09/23 02:48:00;;;;;;;46.28;27.70;;;;;;;9.38;98.30;99506.69;4199257;83;21668;-83
2021/09/23 02:54:03;;;;;;;46.02;25.08;;;;;;;9.32;98.60;99512.17;4192073;83;21064;-82
2021/09/23 03:00:06;;;;;;;52.60;26.65;;;;;;;9.34;99.14;99506.59;4196044;83;21042;-82
2021/09/23 03:06:07;;;;;;;45.92;24.47;;;;;;;9.38;99.13;99506.09;4244394;82;20981;-82
2021/09/23 03:12:08;;;;;;;44.48;24.00;;;;;;;9.41;99.27;99507.34;4253532;82;21054;-82
2021/09/23 03:18:09;;;;;;;40.28;22.30;;;;;;;9.43;99.26;99499.00;4239948;81;21376;-82
2021/09/23 03:24:11;;;;;;;45.48;23.47;;;;;;;9.41;99.15;99510.84;4226283;82;21026;-82
2021/09/23 03:30:12;;;;;;;44.33;24.70;;;;;;;9.41;99.30;99499.14;4253869;81;21343;-82
2021/09/23 03:36:14;;;;;;;39.20;22.55;;;;;;;9.43;99.31;99496.27;4246642;82;21036;-82
2021/09/23 03:42:17;;;;;;;41.85;21.50;;;;;;;9.42;99.42;99496.62;4241260;82;21036;-81
2021/09/23 03:48:20;;;;;;;41.00;22.48;;;;;;;9.36;99.19;99500.18;4248783;82;21091;-82
2021/09/23 03:54:22;;;;;;;38.73;21.93;;;;;;;9.33;99.24;99511.82;4239862;83;21020;-82
2021/09/23 04:00:25;;;;;;;41.10;23.00;;;;;;;9.32;99.39;99508.88;4208204;83;21527;-82
2021/09/23 04:06:27;;;;;;;36.75;20.10;;;;;;;9.30;99.43;99502.97;4171217;83;21010;-82
2021/09/23 04:12:28;;;;;;;41.90;22.10;;;;;;;9.28;99.44;99503.91;4155858;83;21541;-82
2021/09/23 04:18:30;;;;;;;37.98;21.55;;;;;;;9.23;99.36;99503.38;4162334;83;21070;-82
2021/09/23 04:24:32;;;;;;;36.85;21.37;;;;;;;9.24;99.79;99494.02;4140443;83;21093;-83
2021/09/23 04:30:34;;;;;;;47.62;22.35;;;;;;;9.25;99.69;99484.14;4151122;84;21040;-82
2021/09/23 04:36:36;;;;;;;37.67;21.00;;;;;;;9.29;99.85;99478.73;4160120;84;21017;-82
2021/09/23 04:42:43;;;;;;;37.73;21.70;;;;;;;9.28;99.36;99470.33;4075395;85;21007;-81
2021/09/23 04:49:02;;;;;;;;;;;;;;;9.26;99.59;99484.91;4139006;84;21523;-82
2021/09/23 04:55:07;;;;;;;30.88;18.67;;;;;;;9.27;99.65;99486.52;4136191;84;20134;-82
2021/09/23 05:01:08;;;;;;;31.33;18.02;;;;;;;9.28;99.25;99480.70;4164268;83;21052;-82
2021/09/23 05:07:10;;;;;;;33.78;18.57;;;;;;;9.30;99.32;99470.78;4211124;83;21070;-82
2021/09/23 05:13:11;;;;;;;29.25;18.27;;;;;;;9.31;99.27;99464.16;4209484;83;21060;-82
2021/09/23 05:19:13;;;;;;;30.43;18.40;;;;;;;9.32;99.26;99462.44;4226075;83;21626;-82
2021/09/23 05:25:15;;;;;;;31.05;18.00;;;;;;;9.37;99.24;99463.53;4224463;83;21473;-83
2021/09/23 05:31:16;;;;;;;29.72;18.05;;;;;;;9.43;99.14;99463.47;4224377;83;21068;-83
2021/09/23 05:37:19;;;;;;;27.25;17.48;;;;;;;9.53;99.21;99465.66;4225767;83;21092;-82
2021/09/23 05:43:20;;;;;;;26.70;17.37;;;;;;;9.60;99.06;99457.41;4225195;83;21077;-82
2021/09/23 05:49:22;;;;;;;25.15;14.58;;;;;;;9.66;98.94;99458.14;4226260;83;21028;-82
2021/09/23 05:55:24;;;;;;;27.52;17.87;;;;;;;9.75;99.18;99459.28;4224667;83;20997;-82
2021/09/23 06:01:25;;;;;;;27.13;16.87;;;;;;;9.89;99.53;99463.12;4207212;83;21633;-81
2021/09/23 06:07:28;;;;;;;26.45;16.67;;;;;;;9.96;98.87;99469.32;4167809;83;21022;-82
2021/09/23 06:13:29;;;;;;;23.32;15.30;;;;;;;9.97;98.92;99461.32;4166322;83;21580;-83
2021/09/23 06:19:31;;;;;;;27.02;15.63;;;;;;;9.99;98.81;99447.48;4165619;83;21036;-82
2021/09/23 06:25:32;;;;;;;24.80;14.55;;;;;;;10.09;98.83;99431.91;4166153;83;21025;-82
2021/09/23 06:31:35;;;;;;;26.68;15.18;;;;;;;10.28;98.83;99436.00;4166212;83;21024;-82
2021/09/23 06:37:38;;;;;;;21.40;14.38;;;;;;;10.45;98.85;99437.48;4166945;83;20985;-82
2021/09/23 06:43:40;;;;;;;23.38;14.47;;;;;;;10.49;98.29;99429.55;4167010;83;21053;-82
2021/09/23 06:49:42;;;;;;;19.77;13.25;;;;;;;10.56;98.52;99430.25;4163290;83;21041;-82
2021/09/23 06:55:43;;;;;;;21.93;13.40;;;;;;;10.59;98.26;99424.84;4167363;83;21045;-82
2021/09/23 07:01:48;;;;;;;19.70;12.55;;;;;;;10.74;98.40;99423.92;4166392;83;21331;-82
2021/09/23 07:07:56;;;;;;;16.70;11.20;;;;;;;10.97;98.29;99417.88;4160809;83;21065;-82
2021/09/23 07:13:57;;;;;;;16.77;10.28;;;;;;;11.28;98.08;99404.44;4169223;83;21064;-83
2021/09/23 07:19:58;;;;;;;15.15;9.33;;;;;;;11.70;98.30;99395.45;4168939;83;21100;-82
2021/09/23 07:26:00;;;;;;;13.03;7.75;;;;;;;12.00;97.77;99394.06;4159908;83;21028;-82
2021/09/23 07:32:02;;;;;;;12.30;8.48;;;;;;;12.22;97.55;99382.95;4168066;83;21501;-82
2021/09/23 07:38:04;;;;;;;12.35;7.50;;;;;;;12.51;97.40;99377.17;4164012;84;21028;-81
2021/09/23 07:44:07;;;;;;;11.97;6.95;;;;;;;12.83;96.79;99367.81;4165130;83;20993;-82
2021/09/23 07:50:10;;;;;;;12.82;6.92;;;;;;;13.14;96.58;99363.19;4168345;83;21240;-81
2021/09/23 07:56:11;;;;;;;12.03;5.67;;;;;;;13.36;95.99;99367.65;4167551;83;21061;-82
2021/09/23 08:02:13;;;;;;;9.93;5.65;;;;;;;13.92;95.98;99359.05;4193121;83;21043;-82
2021/09/23 08:08:15;;;;;;;9.98;4.72;;;;;;;13.98;94.61;99348.47;4225384;83;21099;-82
2021/09/23 08:14:18;;;;;;;14.03;4.33;;;;;;;13.99;94.18;99351.41;4224432;83;21044;-81
2021/09/23 08:20:23;;;;;;;11.28;4.00;;;;;;;13.94;93.70;99355.33;4224871;83;21078;-82
2021/09/23 08:26:27;;;;;;;10.63;4.08;;;;;;;13.96;93.61;99354.94;4226459;83;21036;-82
2021/09/23 08:32:30;;;;;;;7.87;3.50;;;;;;;13.98;92.81;99342.35;4221210;83;21056;-82
2021/09/23 08:38:31;;;;;;;9.18;4.20;;;;;;;14.38;93.15;99333.61;4226045;83;21087;-82
2021/09/23 08:44:33;;;;;;;7.03;3.62;;;;;;;14.83;92.48;99326.74;4221976;83;21004;-82
2021/09/23 08:50:37;;;;;;;8.98;3.30;;;;;;;14.89;91.55;99318.27;4195535;83;21040;-82
2021/09/23 08:56:40;;;;;;;7.53;3.35;;;;;;;15.02;91.20;99319.44;4227267;83;21367;-82
2021/09/23 09:02:42;;;;;;;8.03;3.45;;;;;;;15.14;90.78;99316.26;4198984;83;21554;-82
2021/09/23 09:08:51;;;;;;;11.00;3.58;;;;;;;15.02;89.86;99320.02;4154413;84;21059;-82
2021/09/23 09:14:59;;;;;;;;;;;;;;;14.96;89.47;99317.48;4159129;84;21024;-82
2021/09/23 09:21:16;;;;;;;12.20;2.92;;;;;;;14.93;88.51;99317.69;4159578;84;20412;-83
2021/09/23 09:27:42;;;;;;;8.33;2.67;;;;;;;14.90;88.45;99317.11;4157299;84;21762;-82
2021/09/23 09:33:50;;;;;;;10.95;2.98;;;;;;;14.88;88.16;99305.68;4156613;84;21117;-83
2021/09/23 09:39:57;;;;;;;15.72;3.20;;;;;;;14.82;87.82;99307.84;4156220;84;21006;-83
2021/09/23 09:45:58;;;;;;;17.55;3.02;;;;;;;14.88;87.93;99299.37;4155616;84;21092;-82
2021/09/23 09:51:59;;;;;;;8.68;2.87;;;;;;;14.93;87.77;99297.59;4158581;84;21065;-83
2021/09/23 09:58:04;;;;;;;12.47;3.45;;;;;;;15.00;87.20;99290.70;4154703;84;21076;-83
2021/09/23 10:04:07;;;;;;;8.95;2.95;;;;;;;15.01;86.96;99290.31;4182640;83;21065;-83
2021/09/23 10:10:11;;;;;;;17.35;3.52;;;;;;;15.12;87.18;99262.70;4168423;84;21108;-83
2021/09/23 10:16:14;;;;;;;9.70;3.08;;;;;;;15.09;86.72;99275.33;4163045;84;21017;-82
2021/09/23 10:22:17;;;;;;;10.58;3.02;;;;;;;15.02;85.73;99269.81;4186872;84;21079;-82
2021/09/23 10:28:20;;;;;;;11.25;3.30;;;;;;;15.15;85.92;99243.40;4176110;84;20973;-82
2021/09/23 10:34:21;;;;;;;18.15;4.20;;;;;;;15.40;85.58;99233.67;4162740;84;21025;-83
2021/09/23 10:40:26;;;;;;;12.60;3.75;;;;;;;15.73;85.55;99224.03;4165301;84;21049;-82
2021/09/23 10:46:28;;;;;;;15.65;4.40;;;;;;;16.23;84.92;99203.97;4187845;82;21042;-82
2021/09/23 10:52:34;;;;;;;14.58;4.22;;;;;;;16.82;83.18;99204.61;4166214;84;21049;-82
2021/09/23 10:58:39;;;;;;;12.13;4.58;;;;;;;16.79;81.13;99205.43;4139715;82;21024;-83
2021/09/23 11:04:40;;;;;;;11.75;4.03;;;;;;;16.61;82.94;99186.88;4191774;83;21364;-82
2021/09/23 11:10:44;;;;;;;19.62;5.70;;;;;;;16.41;82.33;99184.48;4214284;82;21080;-82
2021/09/23 11:16:57;;;;;;;15.23;5.28;;;;;;;16.24;82.24;99172.38;4242453;83;21518;-82
2021/09/23 11:23:04;;;;;;;12.35;5.78;;;;;;;16.22;80.88;99156.04;4234698;83;21509;-81
2021/09/23 11:29:06;;;;;;;;;;;;;;;16.35;80.15;99155.11;4226046;83;21604;-82
2021/09/23 11:35:08;;;;;;;13.78;6.45;;;;;;;16.28;79.48;99160.72;4226304;83;20103;-83
2021/09/23 11:41:14;;;;;;;13.75;6.72;;;;;;;16.04;79.62;99141.58;4233577;81;21102;-83
2021/09/23 11:47:21;;;;;;;18.50;5.50;;;;;;;15.97;79.39;99121.75;4214281;82;21044;-82
2021/09/23 11:53:34;;;;;;;13.40;6.45;;;;;;;15.97;78.11;99103.00;4221455;83;20992;-82
2021/09/23 11:59:36;;;;;;;15.25;6.28;;;;;;;16.00;78.97;99104.36;4228150;81;21052;-82
2021/09/23 12:05:40;;;;;;;16.85;6.60;;;;;;;15.95;78.61;99090.98;4171916;83;21081;-81
2021/09/23 12:11:46;;;;;;;11.78;6.30;;;;;;;15.92;78.67;99089.64;4158348;82;21049;-82
2021/09/23 12:18:02;;;;;;;14.05;6.45;;;;;;;16.01;78.94;99082.45;4156535;84;21070;-82
2021/09/23 12:24:04;;;;;;;15.55;6.40;;;;;;;16.12;79.00;99060.25;4129485;84;21601;-83
2021/09/23 12:30:08;;;;;;;14.33;6.25;;;;;;;16.21;77.92;99043.38;4156296;83;21596;-83
2021/09/23 12:36:16;;;;;;;10.93;6.00;;;;;;;16.27;77.38;99032.69;4151824;82;21030;-83
2021/09/23 12:42:29;;;;;;;9.00;6.12;;;;;;;16.30;77.88;99010.53;4147064;82;21072;-83
2021/09/23 12:48:31;;;;;;;15.68;6.10;;;;;;;16.28;77.24;98998.34;4150012;83;21572;-81
2021/09/23 12:54:33;;;;;;;13.85;6.50;;;;;;;16.24;76.68;98991.46;4151630;83;22163;-81
2021/09/23 13:00:39;;;;;;;10.58;6.80;;;;;;;16.24;76.41;98980.41;4160429;83;21045;-82
2021/09/23 13:06:45;;;;;;;11.75;6.95;;;;;;;16.26;76.03;98982.77;4249558;82;21127;-82
2021/09/23 13:13:06;;;;;;;16.25;6.65;;;;;;;16.30;76.38;98978.00;4242601;82;21034;-82
2021/09/23 13:19:11;;;;;;;11.75;6.70;;;;;;;16.55;76.40;98954.39;4256959;82;21051;-82
2021/09/23 13:25:17;;;;;;;11.57;6.95;;;;;;;16.71;75.26;98933.84;4210612;82;21103;-83
2021/09/23 13:31:22;;;;;;;12.35;6.95;;;;;;;16.58;75.18;98930.10;4263789;83;21036;-82
2021/09/23 13:37:26;;;;;;;17.62;7.87;;;;;;;16.40;74.92;98932.27;4255807;82;21063;-82
2021/09/23 13:43:30;;;;;;;13.55;7.42;;;;;;;16.26;75.16;98926.94;4252171;82;21030;-82
2021/09/23 13:49:42;;;;;;;14.70;7.62;;;;;;;16.30;75.47;98920.75;4244814;81;21011;-82
2021/09/23 13:55:44;;;;;;;9.65;7.00;;;;;;;16.31;75.79;98918.78;4245377;83;21010;-82
2021/09/23 14:01:46;;;;;;;15.68;7.42;;;;;;;16.31;75.53;98913.26;4256494;81;21071;-82
2021/09/23 14:07:49;;;;;;;11.70;7.00;;;;;;;16.24;75.42;98895.41;4175881;82;21091;-82
2021/09/23 14:13:52;;;;;;;14.20;7.60;;;;;;;16.15;75.41;98882.69;4179221;83;21038;-83
2021/09/23 14:19:53;;;;;;;9.35;6.92;;;;;;;16.13;74.98;98881.72;4199786;82;21021;-82
2021/09/23 14:25:55;;;;;;;11.55;7.20;;;;;;;16.12;74.58;98877.99;4171545;83;21045;-81
2021/09/23 14:31:56;;;;;;;13.18;7.50;;;;;;;16.11;75.21;98860.66;4177078;83;21076;-82
2021/09/23 14:37:58;;;;;;;12.18;7.78;;;;;;;16.09;75.23;98850.63;4181269;82;21048;-82
2021/09/23 14:44:00;;;;;;;12.33;7.15;;;;;;;16.03;75.13;98850.91;4180623;83;21604;-82
2021/09/23 14:50:01;;;;;;;11.33;7.92;;;;;;;15.94;75.15;98847.08;4172893;82;21100;-82
2021/09/23 14:56:03;;;;;;;15.55;7.62;;;;;;;15.87;75.30;98842.42;4176889;83;21100;-82
2021/09/23 15:02:06;;;;;;;13.18;7.47;;;;;;;15.79;75.42;98836.02;4171558;83;21072;-82
2021/09/23 15:08:07;;;;;;;12.65;7.58;;;;;;;15.72;75.76;98829.22;4259626;81;21070;-83
2021/09/23 15:14:09;;;;;;;10.48;7.42;;;;;;;15.66;76.04;98815.08;4278580;83;21082;-83
2021/09/23 15:20:11;;;;;;;13.68;8.23;;;;;;;15.55;76.30;98802.80;4248760;81;21431;-82
2021/09/23 15:26:12;;;;;;;10.30;6.72;;;;;;;15.46;76.57;98793.45;4249008;81;21121;-82
2021/09/23 15:32:15;;;;;;;9.55;7.15;;;;;;;15.43;76.80;98781.86;4249706;82;21008;-82
2021/09/23 15:38:17;;;;;;;12.07;7.55;;;;;;;15.43;77.06;98779.89;4241910;83;21068;-82
2021/09/23 15:44:18;;;;;;;17.17;9.83;;;;;;;15.40;77.35;98766.14;4243179;81;21047;-82
2021/09/23 15:50:21;;;;;;;12.88;8.78;;;;;;;15.37;77.43;98760.83;4242726;81;21544;-81
2021/09/23 15:56:23;;;;;;;10.85;7.67;;;;;;;15.29;77.54;98753.03;4253136;83;21602;-82
2021/09/23 16:02:25;;;;;;;13.05;8.43;;;;;;;15.17;77.90;98750.23;4237775;81;21076;-82
2021/09/23 16:08:27;;;;;;;14.53;7.83;;;;;;;15.10;77.99;98749.50;4186643;84;21593;-82
2021/09/23 16:14:29;;;;;;;13.60;9.48;;;;;;;15.01;78.21;98734.84;4184480;82;21065;-83
2021/09/23 16:20:33;;;;;;;15.43;8.30;;;;;;;14.90;78.40;98731.42;4189230;82;21096;-82
2021/09/23 16:26:34;;;;;;;16.02;9.00;;;;;;;14.80;78.59;98718.52;4178473;82;21033;-82
2021/09/23 16:32:36;;;;;;;13.65;8.80;;;;;;;14.72;78.84;98710.75;4165278;82;21047;-82
2021/09/23 16:38:41;;;;;;;14.07;8.90;;;;;;;14.65;78.99;98695.66;4175672;84;21032;-82
2021/09/23 16:44:42;;;;;;;17.65;8.73;;;;;;;14.57;79.25;98686.68;4177643;84;21069;-82
2021/09/23 16:50:44;;;;;;;11.35;7.75;;;;;;;14.50;79.28;98685.36;4158132;83;21015;-82
2021/09/23 16:56:45;;;;;;;12.43;7.97;;;;;;;14.55;79.12;98686.91;4183147;82;20980;-81
2021/09/23 17:02:49;;;;;;;12.90;7.62;;;;;;;14.55;79.37;98680.03;4182926;82;21498;-81
2021/09/23 17:09:21;;;;;;;13.32;8.60;;;;;;;14.53;79.53;98670.01;4268475;83;21531;-81
2021/09/23 17:15:23;;;;;;;14.10;8.60;;;;;;;14.47;79.64;98651.75;4249982;82;21540;-82
2021/09/23 17:28:11;;;;;;;13.95;8.58;;;;;;;14.41;79.80;98629.22;4249488;83;20991;-82
2021/09/23 17:34:13;;;;;;;14.73;9.30;;;;;;;14.37;79.90;98625.11;4252444;81;21059;-82
2021/09/23 17:40:16;;;;;;;16.07;8.83;;;;;;;14.23;80.14;98619.72;4244051;83;21047;-82
2021/09/23 17:46:17;;;;;;;12.93;9.13;;;;;;;14.12;80.33;98609.40;4256729;82;21051;-82
2021/09/23 17:52:19;;;;;;;12.95;8.80;;;;;;;14.08;80.61;98603.92;4257622;82;21023;-81
2021/09/23 17:58:22;;;;;;;13.32;8.88;;;;;;;14.03;80.79;98580.95;4257123;81;21086;-82
2021/09/23 18:04:23;;;;;;;14.10;9.25;;;;;;;14.01;81.27;98568.80;4222142;83;21076;-82
2021/09/23 18:10:25;;;;;;;13.88;8.78;;;;;;;14.03;81.30;98556.80;4186545;83;21682;-81
2021/09/23 18:16:27;;;;;;;14.23;8.38;;;;;;;14.13;81.15;98544.89;4175384;84;21044;-81
2021/09/23 18:22:28;;;;;;;10.75;7.37;;;;;;;14.10;81.48;98543.75;4173542;82;21058;-81
2021/09/23 18:28:30;;;;;;;11.75;7.92;;;;;;;14.14;81.40;98534.09;4166778;83;21060;-82
2021/09/23 18:34:32;;;;;;;11.25;8.13;;;;;;;14.14;81.68;98526.59;4171615;83;21529;-81
2021/09/23 18:40:33;;;;;;;11.60;7.72;;;;;;;14.14;81.99;98521.08;4169009;82;21037;-82
2021/09/23 18:46:35;;;;;;;13.60;6.90;;;;;;;14.22;81.83;98506.64;4190298;83;21081;-83
2021/09/23 18:52:37;;;;;;;18.15;7.45;;;;;;;14.42;81.12;98502.72;4185487;83;20988;-82
2021/09/23 18:58:39;;;;;;;9.95;5.97;;;;;;;14.56;81.03;98488.19;4174979;83;21528;-82
2021/09/23 19:04:40;;;;;;;9.50;6.20;;;;;;;14.67;80.79;98471.52;4178154;83;21545;-81
2021/09/23 19:10:43;;;;;;;14.87;6.78;;;;;;;14.74;80.55;98447.98;4174066;83;21502;-80
2021/09/23 19:16:47;;;;;;;11.90;6.90;;;;;;;14.76;80.40;98450.53;4185181;83;21076;-81
2021/09/23 19:22:50;;;;;;;14.33;6.60;;;;;;;14.77;80.28;98446.56;4184749;83;21086;-82
2021/09/23 19:28:52;;;;;;;12.10;6.90;;;;;;;14.86;79.53;98434.42;4183266;83;21057;-82
2021/09/23 19:34:53;;;;;;;9.85;6.00;;;;;;;14.88;79.76;98419.63;4177502;83;20997;-82
2021/09/23 19:40:56;;;;;;;9.58;6.00;;;;;;;14.87;80.17;98417.30;4184501;83;21021;-81
2021/09/23 19:47:00;;;;;;;10.93;5.55;;;;;;;14.81;80.23;98410.11;4163339;83;21085;-82
2021/09/23 19:53:04;;;;;;;7.72;5.62;;;;;;;14.74;80.45;98406.66;4181038;82;21028;-82
2021/09/23 19:59:05;;;;;;;12.55;6.17;;;;;;;14.78;80.43;98393.63;4168947;83;22204;-81
2021/09/23 20:05:08;;;;;;;10.10;5.33;;;;;;;14.80;80.43;98389.25;4176743;82;21068;-82
2021/09/23 20:11:11;;;;;;;10.35;5.75;;;;;;;14.86;80.46;98373.03;4154408;84;21099;-82
2021/09/23 20:17:13;;;;;;;10.60;5.17;;;;;;;14.92;80.26;98356.99;4157671;84;20999;-81
2021/09/23 20:23:15;;;;;;;11.18;5.20;;;;;;;14.96;80.27;98334.86;4156318;84;21564;-82
2021/09/23 20:29:16;;;;;;;6.72;4.95;;;;;;;15.03;80.22;98329.25;4157687;84;21573;-82
2021/09/23 20:35:21;;;;;;;8.95;4.60;;;;;;;15.02;80.32;98317.43;4156355;84;21021;-82
2021/09/23 20:41:22;;;;;;;8.80;4.78;;;;;;;15.08;79.94;98306.09;4155467;84;21054;-82
2021/09/23 20:47:23;;;;;;;9.53;5.08;;;;;;;15.15;79.84;98287.28;4158403;84;21597;-82
2021/09/23 20:53:25;;;;;;;13.72;4.67;;;;;;;15.16;79.63;98283.34;4156875;84;21050;-82
2021/09/23 20:59:33;;;;;;;9.70;5.08;;;;;;;15.21;79.77;98293.86;4156204;84;21029;-81
2021/09/23 21:05:32;;;;;;;8.68;4.37;;;;;;;15.17;79.69;98291.19;4182042;83;21037;-82
2021/09/23 21:11:36;;;;;;;12.10;4.17;;;;;;;15.18;79.64;98291.95;4238661;82;21614;-81
2021/09/23 21:17:38;;;;;;;11.88;4.80;;;;;;;15.25;79.60;98280.80;4220659;83;21071;-83
2021/09/23 21:23:42;;;;;;;9.73;4.53;;;;;;;15.20;79.50;98286.21;4222659;83;20996;-82
2021/09/23 21:29:45;;;;;;;8.93;4.70;;;;;;;15.14;79.51;98282.98;4222103;81;21603;-82
2021/09/23 21:35:46;;;;;;;8.45;4.25;;;;;;;15.06;79.61;98275.44;4227712;83;21043;-82
2021/09/23 21:41:48;;;;;;;9.10;4.37;;;;;;;15.03;79.75;98258.96;4217650;83;21405;-82
2021/09/23 21:47:50;;;;;;;6.12;4.20;;;;;;;15.00;79.76;98252.92;4228836;82;21071;-82
2021/09/23 21:53:51;;;;;;;10.68;4.55;;;;;;;14.93;79.84;98249.69;4230510;83;21032;-82
2021/09/23 21:59:53;;;;;;;6.90;4.70;;;;;;;14.86;79.99;98238.77;4237030;83;20976;-83
2021/09/23 22:05:54;;;;;;;8.80;4.58;;;;;;;14.81;80.22;98235.73;4202179;81;21096;-83
2021/09/23 22:11:56;;;;;;;14.45;4.60;;;;;;;14.82;80.15;98223.52;4212633;83;21343;-82
2021/09/23 22:17:57;;;;;;;6.30;4.25;;;;;;;14.80;80.26;98225.31;4222101;83;21043;-82
2021/09/23 22:23:58;;;;;;;7.15;4.35;;;;;;;14.77;80.54;98209.63;4234413;83;21056;-82
2021/09/23 22:29:59;;;;;;;8.58;4.42;;;;;;;14.79;80.57;98194.84;4227439;81;21026;-82
2021/09/23 22:36:01;;;;;;;8.13;4.80;;;;;;;14.80;80.86;98161.94;4235337;83;21107;-82
2021/09/23 22:42:03;;;;;;;11.48;3.98;;;;;;;14.84;80.54;98142.00;4220954;83;21009;-82
2021/09/23 22:48:06;;;;;;;8.45;4.12;;;;;;;15.13;80.14;98129.79;4219584;83;21085;-81
2021/09/23 22:54:08;;;;;;;6.00;4.62;;;;;;;15.26;79.32;98127.95;4232026;83;21012;-82
2021/09/23 23:00:12;;;;;;;9.05;4.40;;;;;;;15.26;79.66;98127.95;4233187;83;21044;-81
2021/09/23 23:06:13;;;;;;;9.00;4.47;;;;;;;15.38;79.26;98101.12;4234097;83;21024;-80
2021/09/23 23:12:15;;;;;;;7.92;3.87;;;;;;;15.49;78.65;98114.86;4226117;83;21043;-82
2021/09/23 23:18:16;;;;;;;8.23;3.92;;;;;;;15.55;78.38;98094.45;4220752;83;21041;-81
2021/09/23 23:24:17;;;;;;;6.95;4.37;;;;;;;15.49;78.23;98114.86;4213909;83;21068;-82
2021/09/23 23:37:06;;;;;;;;;;;;;;;15.43;77.88;98116.57;4220850;83;21111;-82
2021/09/23 23:43:07;;;;;;;5.75;3.62;;;;;;;15.42;77.44;98088.83;4228336;81;20961;-82
2021/09/23 23:49:12;;;;;;;8.20;4.45;;;;;;;15.39;78.09;98104.83;4225172;83;21051;-82
2021/09/23 23:55:14;;;;;;;10.15;4.72;;;;;;;15.27;78.21;98109.59;4232676;83;21484;-82
